Portada
METAR-TAF:

METAR-TAF

Aeroports :

Shell Mera, Equador

latitud: 01-30-19S, longitud: 078-03-46W, altitud: 1056 m

Observació

L'informe es va fer fa 12 hores i 46 minuts, a les 23:00 UTC
Vent calma
Temperatura 22°C
Humitat 88%
Pressió 1015 hPa
Visibilitat 10 km o més
Núvols disperses a una alçada de 3000 ft
Cel ennuvolat a una alçada de 10000 ft

METAR: SESM 042300Z 00000KT 9999 SCT030 BKN100 22/20 Q1015 RMK A2998

Hora: 06:46 (11:46 UTC)


TAF: manca

Observacions i pronòstics meteorològics de més de 4000 aeroports (METAR i TAF).

Les estacions disponibles són els punts grocs i vermells al mapa.

Posi el ratolí al punt desitjat per veure el nom de l'estació.

Feu clic per veure les observacions i els pronòstics meteorològics.

Per canviar el mapa: feu clic els botons verds amb una creu de color negre per apropar; al botó verd amb un guió per allunyar la imatge; o en les fletxes verdes per a mapes adjacents.


METAR-TAF: